sensor_id;sensor_type;location;lat;lon;timestamp;P1;durP1;ratioP1;P2;durP2;ratioP2
63772;SDS011;49919;53.612;55.898;2022-09-21T00:01:13;18.48;;;6.78;;
63772;SDS011;49919;53.612;55.898;2022-09-21T00:02:47;19.73;;;7.18;;
63772;SDS011;49919;53.612;55.898;2022-09-21T00:04:18;17.85;;;7.18;;
63772;SDS011;49919;53.612;55.898;2022-09-21T00:05:49;10.85;;;6.57;;
63772;SDS011;49919;53.612;55.898;2022-09-21T00:07:20;12.82;;;6.53;;
63772;SDS011;49919;53.612;55.898;2022-09-21T00:08:51;17.30;;;6.47;;
63772;SDS011;49919;53.612;55.898;2022-09-21T00:10:22;16.30;;;6.70;;
63772;SDS011;49919;53.612;55.898;2022-09-21T00:11:53;12.63;;;6.60;;
63772;SDS011;49919;53.612;55.898;2022-09-21T00:13:24;11.30;;;6.32;;
63772;SDS011;49919;53.612;55.898;2022-09-21T00:14:57;13.77;;;7.10;;
63772;SDS011;49919;53.612;55.898;2022-09-21T00:16:28;16.65;;;7.30;;
63772;SDS011;49919;53.612;55.898;2022-09-21T00:18:00;19.08;;;6.97;;
63772;SDS011;49919;53.612;55.898;2022-09-21T00:19:34;16.48;;;7.43;;
63772;SDS011;49919;53.612;55.898;2022-09-21T00:21:09;17.95;;;7.75;;
63772;SDS011;49919;53.612;55.898;2022-09-21T00:22:43;16.48;;;6.93;;
63772;SDS011;49919;53.612;55.898;2022-09-21T00:24:13;12.10;;;6.85;;
63772;SDS011;49919;53.612;55.898;2022-09-21T00:25:44;18.55;;;7.20;;
63772;SDS011;49919;53.612;55.898;2022-09-21T00:27:15;20.23;;;8.10;;
63772;SDS011;49919;53.612;55.898;2022-09-21T00:28:46;20.48;;;8.50;;
63772;SDS011;49919;53.612;55.898;2022-09-21T00:30:23;16.15;;;9.73;;
63772;SDS011;49919;53.612;55.898;2022-09-21T00:31:54;23.25;;;11.32;;
63772;SDS011;49919;53.612;55.898;2022-09-21T00:33:25;15.77;;;9.25;;
63772;SDS011;49919;53.612;55.898;2022-09-21T00:34:56;23.30;;;12.57;;
63772;SDS011;49919;53.612;55.898;2022-09-21T00:36:27;40.45;;;14.68;;
63772;SDS011;49919;53.612;55.898;2022-09-21T00:37:59;41.92;;;17.52;;
63772;SDS011;49919;53.612;55.898;2022-09-21T00:39:31;41.65;;;19.23;;
63772;SDS011;49919;53.612;55.898;2022-09-21T00:41:03;49.17;;;20.83;;
63772;SDS011;49919;53.612;55.898;2022-09-21T00:42:35;50.20;;;21.92;;
63772;SDS011;49919;53.612;55.898;2022-09-21T00:45:56;62.00;;;23.45;;
63772;SDS011;49919;53.612;55.898;2022-09-21T00:49:11;100.22;;;36.42;;
63772;SDS011;49919;53.612;55.898;2022-09-21T00:50:45;97.20;;;42.42;;
63772;SDS011;49919;53.612;55.898;2022-09-21T00:52:21;156.98;;;60.90;;
63772;SDS011;49919;53.612;55.898;2022-09-21T00:53:56;144.52;;;60.58;;
63772;SDS011;49919;53.612;55.898;2022-09-21T00:55:38;176.60;;;70.35;;
63772;SDS011;49919;53.612;55.898;2022-09-21T00:57:12;187.93;;;72.40;;
63772;SDS011;49919;53.612;55.898;2022-09-21T00:58:46;201.07;;;80.38;;
63772;SDS011;49919;53.612;55.898;2022-09-21T01:00:20;208.13;;;83.53;;
63772;SDS011;49919;53.612;55.898;2022-09-21T01:01:51;216.50;;;85.28;;
63772;SDS011;49919;53.612;55.898;2022-09-21T01:03:23;218.07;;;83.05;;
63772;SDS011;49919;53.612;55.898;2022-09-21T01:04:54;202.80;;;77.10;;
63772;SDS011;49919;53.612;55.898;2022-09-21T01:06:25;197.45;;;76.45;;
63772;SDS011;49919;53.612;55.898;2022-09-21T01:07:57;150.10;;;62.38;;
63772;SDS011;49919;53.612;55.898;2022-09-21T01:09:31;133.68;;;51.47;;
63772;SDS011;49919;53.612;55.898;2022-09-21T01:16:26;60.03;;;24.05;;
63772;SDS011;49919;53.612;55.898;2022-09-21T01:27:53;40.35;;;15.85;;
63772;SDS011;49919;53.612;55.898;2022-09-21T01:33:27;42.97;;;16.08;;
63772;SDS011;49919;53.612;55.898;2022-09-21T01:35:04;53.67;;;15.75;;
63772;SDS011;49919;53.612;55.898;2022-09-21T01:36:40;72.60;;;17.05;;
63772;SDS011;49919;53.612;55.898;2022-09-21T01:38:18;63.35;;;16.42;;
63772;SDS011;49919;53.612;55.898;2022-09-21T01:39:55;64.32;;;14.75;;
63772;SDS011;49919;53.612;55.898;2022-09-21T01:41:30;66.07;;;15.15;;
63772;SDS011;49919;53.612;55.898;2022-09-21T01:43:02;56.88;;;12.88;;
63772;SDS011;49919;53.612;55.898;2022-09-21T01:44:36;40.75;;;12.07;;
63772;SDS011;49919;53.612;55.898;2022-09-21T01:46:11;40.10;;;12.45;;
63772;SDS011;49919;53.612;55.898;2022-09-21T01:47:47;49.10;;;11.70;;
63772;SDS011;49919;53.612;55.898;2022-09-21T01:49:29;45.50;;;11.40;;
63772;SDS011;49919;53.612;55.898;2022-09-21T01:51:06;43.75;;;10.77;;
63772;SDS011;49919;53.612;55.898;2022-09-21T01:52:48;30.75;;;9.80;;
63772;SDS011;49919;53.612;55.898;2022-09-21T01:54:32;32.35;;;9.60;;
63772;SDS011;49919;53.612;55.898;2022-09-21T01:56:13;45.65;;;10.05;;
63772;SDS011;49919;53.612;55.898;2022-09-21T01:57:51;29.27;;;9.07;;
63772;SDS011;49919;53.612;55.898;2022-09-21T01:59:45;32.55;;;9.70;;
63772;SDS011;49919;53.612;55.898;2022-09-21T02:01:23;35.25;;;8.90;;
63772;SDS011;49919;53.612;55.898;2022-09-21T02:05:05;28.73;;;8.95;;
63772;SDS011;49919;53.612;55.898;2022-09-21T02:06:41;23.95;;;8.25;;
63772;SDS011;49919;53.612;55.898;2022-09-21T02:08:14;16.83;;;7.50;;
63772;SDS011;49919;53.612;55.898;2022-09-21T02:09:45;29.02;;;7.82;;
63772;SDS011;49919;53.612;55.898;2022-09-21T02:11:17;21.67;;;8.52;;
63772;SDS011;49919;53.612;55.898;2022-09-21T02:12:49;26.83;;;8.05;;
63772;SDS011;49919;53.612;55.898;2022-09-21T02:14:26;22.25;;;7.47;;
63772;SDS011;49919;53.612;55.898;2022-09-21T02:18:12;21.02;;;7.95;;
63772;SDS011;49919;53.612;55.898;2022-09-21T02:23:36;21.05;;;12.18;;
63772;SDS011;49919;53.612;55.898;2022-09-21T02:25:40;29.73;;;10.57;;
63772;SDS011;49919;53.612;55.898;2022-09-21T02:27:17;22.25;;;10.30;;
63772;SDS011;49919;53.612;55.898;2022-09-21T02:29:11;25.63;;;9.70;;
63772;SDS011;49919;53.612;55.898;2022-09-21T02:30:52;26.73;;;8.65;;
63772;SDS011;49919;53.612;55.898;2022-09-21T02:36:32;12.93;;;6.72;;
63772;SDS011;49919;53.612;55.898;2022-09-21T02:38:40;21.50;;;7.15;;
63772;SDS011;49919;53.612;55.898;2022-09-21T02:40:24;18.13;;;6.72;;
63772;SDS011;49919;53.612;55.898;2022-09-21T02:44:21;18.58;;;6.80;;
63772;SDS011;49919;53.612;55.898;2022-09-21T02:45:27;12.07;;;6.53;;
63772;SDS011;49919;53.612;55.898;2022-09-21T02:47:06;27.67;;;6.95;;
63772;SDS011;49919;53.612;55.898;2022-09-21T02:48:52;27.08;;;7.72;;
63772;SDS011;49919;53.612;55.898;2022-09-21T02:50:33;24.85;;;7.35;;
63772;SDS011;49919;53.612;55.898;2022-09-21T02:52:12;25.90;;;6.93;;
63772;SDS011;49919;53.612;55.898;2022-09-21T02:53:45;29.98;;;7.75;;
63772;SDS011;49919;53.612;55.898;2022-09-21T02:55:18;25.95;;;8.02;;
63772;SDS011;49919;53.612;55.898;2022-09-21T02:56:49;34.30;;;7.82;;
63772;SDS011;49919;53.612;55.898;2022-09-21T02:58:23;31.08;;;8.55;;
63772;SDS011;49919;53.612;55.898;2022-09-21T02:59:56;19.10;;;7.15;;
63772;SDS011;49919;53.612;55.898;2022-09-21T03:01:27;15.45;;;7.25;;
63772;SDS011;49919;53.612;55.898;2022-09-21T03:03:00;16.40;;;7.72;;
63772;SDS011;49919;53.612;55.898;2022-09-21T03:04:46;15.85;;;7.28;;
63772;SDS011;49919;53.612;55.898;2022-09-21T03:06:18;15.45;;;7.35;;
63772;SDS011;49919;53.612;55.898;2022-09-21T03:07:49;26.42;;;7.65;;
63772;SDS011;49919;53.612;55.898;2022-09-21T03:09:20;19.45;;;7.53;;
63772;SDS011;49919;53.612;55.898;2022-09-21T03:10:53;16.05;;;6.80;;
63772;SDS011;49919;53.612;55.898;2022-09-21T03:12:24;12.75;;;6.55;;
63772;SDS011;49919;53.612;55.898;2022-09-21T03:13:56;15.68;;;6.93;;
63772;SDS011;49919;53.612;55.898;2022-09-21T03:15:27;12.27;;;6.50;;
63772;SDS011;49919;53.612;55.898;2022-09-21T03:16:58;13.93;;;6.65;;
63772;SDS011;49919;53.612;55.898;2022-09-21T03:18:30;15.43;;;6.15;;
63772;SDS011;49919;53.612;55.898;2022-09-21T03:20:01;19.42;;;7.20;;
63772;SDS011;49919;53.612;55.898;2022-09-21T03:21:33;18.17;;;6.05;;
63772;SDS011;49919;53.612;55.898;2022-09-21T03:23:04;17.83;;;6.53;;
63772;SDS011;49919;53.612;55.898;2022-09-21T03:24:36;15.05;;;6.32;;
63772;SDS011;49919;53.612;55.898;2022-09-21T03:26:16;11.77;;;6.68;;
63772;SDS011;49919;53.612;55.898;2022-09-21T03:27:51;13.85;;;7.60;;
63772;SDS011;49919;53.612;55.898;2022-09-21T03:29:23;15.80;;;6.05;;
63772;SDS011;49919;53.612;55.898;2022-09-21T03:30:54;12.63;;;6.00;;
63772;SDS011;49919;53.612;55.898;2022-09-21T03:32:25;17.02;;;6.65;;
63772;SDS011;49919;53.612;55.898;2022-09-21T03:33:55;14.68;;;7.30;;
63772;SDS011;49919;53.612;55.898;2022-09-21T03:35:27;17.33;;;6.80;;
63772;SDS011;49919;53.612;55.898;2022-09-21T03:36:57;14.88;;;6.35;;
63772;SDS011;49919;53.612;55.898;2022-09-21T03:38:28;18.70;;;6.70;;
63772;SDS011;49919;53.612;55.898;2022-09-21T03:39:59;16.80;;;7.07;;
63772;SDS011;49919;53.612;55.898;2022-09-21T03:41:30;17.65;;;7.03;;
63772;SDS011;49919;53.612;55.898;2022-09-21T03:43:07;20.08;;;9.80;;
63772;SDS011;49919;53.612;55.898;2022-09-21T03:44:39;18.45;;;7.32;;
63772;SDS011;49919;53.612;55.898;2022-09-21T03:46:10;16.92;;;7.10;;
63772;SDS011;49919;53.612;55.898;2022-09-21T03:47:42;20.88;;;7.20;;
63772;SDS011;49919;53.612;55.898;2022-09-21T03:51:18;25.92;;;8.32;;
63772;SDS011;49919;53.612;55.898;2022-09-21T03:52:49;25.30;;;7.35;;
63772;SDS011;49919;53.612;55.898;2022-09-21T03:54:20;42.92;;;33.38;;
63772;SDS011;49919;53.612;55.898;2022-09-21T03:55:51;20.42;;;9.73;;
63772;SDS011;49919;53.612;55.898;2022-09-21T03:57:22;16.65;;;7.03;;
63772;SDS011;49919;53.612;55.898;2022-09-21T03:58:52;14.05;;;7.47;;
63772;SDS011;49919;53.612;55.898;2022-09-21T04:00:23;15.25;;;7.43;;
63772;SDS011;49919;53.612;55.898;2022-09-21T04:01:54;20.80;;;8.43;;
63772;SDS011;49919;53.612;55.898;2022-09-21T04:03:25;14.60;;;8.55;;
63772;SDS011;49919;53.612;55.898;2022-09-21T04:04:56;12.45;;;7.90;;
63772;SDS011;49919;53.612;55.898;2022-09-21T04:06:27;13.73;;;9.07;;
63772;SDS011;49919;53.612;55.898;2022-09-21T04:07:58;18.10;;;8.25;;
63772;SDS011;49919;53.612;55.898;2022-09-21T04:09:31;21.48;;;9.27;;
63772;SDS011;49919;53.612;55.898;2022-09-21T04:11:08;19.90;;;8.38;;
63772;SDS011;49919;53.612;55.898;2022-09-21T04:12:41;24.25;;;8.23;;
63772;SDS011;49919;53.612;55.898;2022-09-21T04:14:16;20.92;;;7.70;;
63772;SDS011;49919;53.612;55.898;2022-09-21T04:15:47;14.60;;;7.88;;
63772;SDS011;49919;53.612;55.898;2022-09-21T04:17:17;17.20;;;8.15;;
63772;SDS011;49919;53.612;55.898;2022-09-21T04:18:49;12.73;;;7.35;;
63772;SDS011;49919;53.612;55.898;2022-09-21T04:20:19;14.55;;;7.95;;
63772;SDS011;49919;53.612;55.898;2022-09-21T04:21:51;12.07;;;8.18;;
63772;SDS011;49919;53.612;55.898;2022-09-21T04:23:22;10.50;;;7.32;;
63772;SDS011;49919;53.612;55.898;2022-09-21T04:24:53;16.92;;;8.70;;
63772;SDS011;49919;53.612;55.898;2022-09-21T04:26:25;13.50;;;7.25;;
63772;SDS011;49919;53.612;55.898;2022-09-21T04:27:57;10.55;;;6.78;;
63772;SDS011;49919;53.612;55.898;2022-09-21T04:29:28;12.85;;;6.43;;
63772;SDS011;49919;53.612;55.898;2022-09-21T04:30:59;13.93;;;6.63;;
63772;SDS011;49919;53.612;55.898;2022-09-21T04:32:30;17.88;;;6.93;;
63772;SDS011;49919;53.612;55.898;2022-09-21T04:34:01;14.85;;;6.07;;
63772;SDS011;49919;53.612;55.898;2022-09-21T04:35:32;11.73;;;5.82;;
63772;SDS011;49919;53.612;55.898;2022-09-21T04:37:03;6.10;;;5.28;;
63772;SDS011;49919;53.612;55.898;2022-09-21T04:38:34;9.48;;;5.70;;
63772;SDS011;49919;53.612;55.898;2022-09-21T04:40:05;7.18;;;5.18;;
63772;SDS011;49919;53.612;55.898;2022-09-21T04:41:37;12.02;;;6.07;;
63772;SDS011;49919;53.612;55.898;2022-09-21T04:43:08;15.13;;;6.72;;
63772;SDS011;49919;53.612;55.898;2022-09-21T04:44:39;11.40;;;6.43;;
63772;SDS011;49919;53.612;55.898;2022-09-21T04:46:14;13.88;;;6.40;;
63772;SDS011;49919;53.612;55.898;2022-09-21T04:47:46;14.18;;;6.53;;
63772;SDS011;49919;53.612;55.898;2022-09-21T04:49:17;11.65;;;5.70;;
63772;SDS011;49919;53.612;55.898;2022-09-21T04:50:49;14.57;;;6.30;;
63772;SDS011;49919;53.612;55.898;2022-09-21T04:52:20;10.43;;;5.50;;
63772;SDS011;49919;53.612;55.898;2022-09-21T04:53:51;20.92;;;6.85;;
63772;SDS011;49919;53.612;55.898;2022-09-21T04:55:21;12.30;;;6.25;;
63772;SDS011;49919;53.612;55.898;2022-09-21T04:56:52;9.40;;;6.10;;
63772;SDS011;49919;53.612;55.898;2022-09-21T04:58:23;15.15;;;7.55;;
63772;SDS011;49919;53.612;55.898;2022-09-21T04:59:54;16.38;;;6.97;;
63772;SDS011;49919;53.612;55.898;2022-09-21T05:01:25;15.30;;;7.05;;
63772;SDS011;49919;53.612;55.898;2022-09-21T05:02:57;18.08;;;7.68;;
63772;SDS011;49919;53.612;55.898;2022-09-21T05:04:28;22.17;;;7.70;;
63772;SDS011;49919;53.612;55.898;2022-09-21T05:05:59;24.33;;;12.63;;
63772;SDS011;49919;53.612;55.898;2022-09-21T05:07:30;27.38;;;11.30;;
63772;SDS011;49919;53.612;55.898;2022-09-21T05:09:01;30.30;;;13.27;;
63772;SDS011;49919;53.612;55.898;2022-09-21T05:10:51;28.10;;;13.20;;
63772;SDS011;49919;53.612;55.898;2022-09-21T05:12:22;19.10;;;10.30;;
63772;SDS011;49919;53.612;55.898;2022-09-21T05:13:53;19.35;;;9.73;;
63772;SDS011;49919;53.612;55.898;2022-09-21T05:15:24;24.95;;;10.82;;
63772;SDS011;49919;53.612;55.898;2022-09-21T05:16:55;23.30;;;12.50;;
63772;SDS011;49919;53.612;55.898;2022-09-21T05:18:26;29.20;;;15.98;;
63772;SDS011;49919;53.612;55.898;2022-09-21T05:19:56;28.80;;;12.70;;
63772;SDS011;49919;53.612;55.898;2022-09-21T05:21:27;17.85;;;8.13;;
63772;SDS011;49919;53.612;55.898;2022-09-21T05:22:59;17.52;;;8.40;;
63772;SDS011;49919;53.612;55.898;2022-09-21T05:24:34;16.90;;;7.82;;
63772;SDS011;49919;53.612;55.898;2022-09-21T05:26:04;20.90;;;8.35;;
63772;SDS011;49919;53.612;55.898;2022-09-21T05:27:39;15.85;;;7.35;;
63772;SDS011;49919;53.612;55.898;2022-09-21T05:29:09;18.23;;;9.63;;
63772;SDS011;49919;53.612;55.898;2022-09-21T05:30:41;23.58;;;11.40;;
63772;SDS011;49919;53.612;55.898;2022-09-21T05:34:02;26.95;;;11.23;;
63772;SDS011;49919;53.612;55.898;2022-09-21T05:37:43;17.63;;;7.30;;
63772;SDS011;49919;53.612;55.898;2022-09-21T05:39:21;12.10;;;6.82;;
63772;SDS011;49919;53.612;55.898;2022-09-21T05:40:52;13.57;;;7.85;;
63772;SDS011;49919;53.612;55.898;2022-09-21T05:42:23;16.48;;;8.23;;
63772;SDS011;49919;53.612;55.898;2022-09-21T05:43:54;16.13;;;8.02;;
63772;SDS011;49919;53.612;55.898;2022-09-21T05:45:25;12.20;;;7.72;;
63772;SDS011;49919;53.612;55.898;2022-09-21T05:47:03;14.95;;;7.47;;
63772;SDS011;49919;53.612;55.898;2022-09-21T05:48:50;17.02;;;8.18;;
63772;SDS011;49919;53.612;55.898;2022-09-21T05:52:27;17.80;;;7.07;;
63772;SDS011;49919;53.612;55.898;2022-09-21T05:54:40;13.35;;;6.32;;
63772;SDS011;49919;53.612;55.898;2022-09-21T05:58:58;14.48;;;6.65;;
63772;SDS011;49919;53.612;55.898;2022-09-21T06:00:34;9.30;;;6.50;;
63772;SDS011;49919;53.612;55.898;2022-09-21T06:04:12;13.98;;;6.22;;
63772;SDS011;49919;53.612;55.898;2022-09-21T06:05:43;12.98;;;5.88;;
63772;SDS011;49919;53.612;55.898;2022-09-21T06:07:14;13.45;;;6.10;;
63772;SDS011;49919;53.612;55.898;2022-09-21T06:08:45;12.93;;;5.97;;
63772;SDS011;49919;53.612;55.898;2022-09-21T06:10:16;8.95;;;5.47;;
63772;SDS011;49919;53.612;55.898;2022-09-21T06:11:48;8.95;;;5.88;;
63772;SDS011;49919;53.612;55.898;2022-09-21T06:13:19;11.48;;;6.38;;
63772;SDS011;49919;53.612;55.898;2022-09-21T06:14:50;10.27;;;5.88;;
63772;SDS011;49919;53.612;55.898;2022-09-21T06:16:20;11.38;;;6.00;;
63772;SDS011;49919;53.612;55.898;2022-09-21T06:17:51;14.23;;;6.10;;
63772;SDS011;49919;53.612;55.898;2022-09-21T06:19:22;19.33;;;7.70;;
63772;SDS011;49919;53.612;55.898;2022-09-21T06:20:53;24.75;;;7.80;;
63772;SDS011;49919;53.612;55.898;2022-09-21T06:22:24;14.82;;;6.60;;
63772;SDS011;49919;53.612;55.898;2022-09-21T06:23:55;14.65;;;7.28;;
63772;SDS011;49919;53.612;55.898;2022-09-21T06:25:26;12.07;;;7.43;;
63772;SDS011;49919;53.612;55.898;2022-09-21T06:26:57;22.15;;;6.43;;
63772;SDS011;49919;53.612;55.898;2022-09-21T06:28:28;12.00;;;6.57;;
63772;SDS011;49919;53.612;55.898;2022-09-21T06:29:59;13.50;;;6.55;;
63772;SDS011;49919;53.612;55.898;2022-09-21T06:31:30;12.82;;;6.78;;
63772;SDS011;49919;53.612;55.898;2022-09-21T06:33:01;12.50;;;6.97;;
63772;SDS011;49919;53.612;55.898;2022-09-21T06:34:33;14.23;;;6.78;;
63772;SDS011;49919;53.612;55.898;2022-09-21T06:36:04;26.25;;;11.95;;
63772;SDS011;49919;53.612;55.898;2022-09-21T06:37:35;16.85;;;9.27;;
63772;SDS011;49919;53.612;55.898;2022-09-21T06:39:09;19.33;;;9.88;;
63772;SDS011;49919;53.612;55.898;2022-09-21T06:40:40;20.05;;;11.50;;
63772;SDS011;49919;53.612;55.898;2022-09-21T06:42:11;17.10;;;10.05;;
63772;SDS011;49919;53.612;55.898;2022-09-21T06:43:42;24.45;;;10.55;;
63772;SDS011;49919;53.612;55.898;2022-09-21T06:45:13;25.90;;;17.58;;
63772;SDS011;49919;53.612;55.898;2022-09-21T06:46:44;32.15;;;18.42;;
63772;SDS011;49919;53.612;55.898;2022-09-21T06:48:15;17.67;;;12.90;;
63772;SDS011;49919;53.612;55.898;2022-09-21T06:49:45;16.52;;;11.98;;
63772;SDS011;49919;53.612;55.898;2022-09-21T06:51:16;25.08;;;12.50;;
63772;SDS011;49919;53.612;55.898;2022-09-21T06:52:50;17.77;;;10.45;;
63772;SDS011;49919;53.612;55.898;2022-09-21T06:54:21;25.77;;;11.93;;
63772;SDS011;49919;53.612;55.898;2022-09-21T06:55:52;18.10;;;9.52;;
63772;SDS011;49919;53.612;55.898;2022-09-21T06:57:23;19.75;;;7.95;;
63772;SDS011;49919;53.612;55.898;2022-09-21T06:58:54;17.27;;;8.13;;
63772;SDS011;49919;53.612;55.898;2022-09-21T07:00:25;21.52;;;9.80;;
63772;SDS011;49919;53.612;55.898;2022-09-21T07:01:55;24.83;;;10.02;;
63772;SDS011;49919;53.612;55.898;2022-09-21T07:03:27;20.35;;;9.52;;
63772;SDS011;49919;53.612;55.898;2022-09-21T07:04:58;16.33;;;10.68;;
63772;SDS011;49919;53.612;55.898;2022-09-21T07:06:29;20.75;;;11.43;;
63772;SDS011;49919;53.612;55.898;2022-09-21T07:08:00;22.20;;;12.60;;
63772;SDS011;49919;53.612;55.898;2022-09-21T07:09:31;30.20;;;12.48;;
63772;SDS011;49919;53.612;55.898;2022-09-21T07:11:02;22.42;;;11.63;;
63772;SDS011;49919;53.612;55.898;2022-09-21T07:12:33;20.60;;;12.05;;
63772;SDS011;49919;53.612;55.898;2022-09-21T07:14:04;22.75;;;12.05;;
63772;SDS011;49919;53.612;55.898;2022-09-21T07:15:35;27.75;;;12.25;;
63772;SDS011;49919;53.612;55.898;2022-09-21T07:17:08;17.83;;;10.88;;
63772;SDS011;49919;53.612;55.898;2022-09-21T07:18:39;18.90;;;10.55;;
63772;SDS011;49919;53.612;55.898;2022-09-21T07:20:10;21.73;;;10.43;;
63772;SDS011;49919;53.612;55.898;2022-09-21T07:21:41;14.73;;;10.40;;
63772;SDS011;49919;53.612;55.898;2022-09-21T07:23:13;18.20;;;9.57;;
63772;SDS011;49919;53.612;55.898;2022-09-21T07:24:48;15.95;;;9.80;;
63772;SDS011;49919;53.612;55.898;2022-09-21T07:26:19;20.23;;;9.02;;
63772;SDS011;49919;53.612;55.898;2022-09-21T07:27:50;17.40;;;7.90;;
63772;SDS011;49919;53.612;55.898;2022-09-21T07:29:21;13.80;;;7.80;;
63772;SDS011;49919;53.612;55.898;2022-09-21T07:30:51;15.82;;;8.40;;
63772;SDS011;49919;53.612;55.898;2022-09-21T07:32:22;16.65;;;8.77;;
63772;SDS011;49919;53.612;55.898;2022-09-21T07:33:57;17.52;;;8.93;;
63772;SDS011;49919;53.612;55.898;2022-09-21T07:35:28;16.25;;;8.52;;
63772;SDS011;49919;53.612;55.898;2022-09-21T07:37:00;18.92;;;6.30;;
63772;SDS011;49919;53.612;55.898;2022-09-21T07:38:33;15.05;;;6.68;;
63772;SDS011;49919;53.612;55.898;2022-09-21T07:40:05;15.88;;;6.80;;
63772;SDS011;49919;53.612;55.898;2022-09-21T07:41:36;15.60;;;8.45;;
63772;SDS011;49919;53.612;55.898;2022-09-21T07:43:07;17.92;;;8.27;;
63772;SDS011;49919;53.612;55.898;2022-09-21T07:44:38;11.98;;;8.30;;
63772;SDS011;49919;53.612;55.898;2022-09-21T07:46:09;14.45;;;7.70;;
63772;SDS011;49919;53.612;55.898;2022-09-21T07:47:41;12.35;;;7.88;;
63772;SDS011;49919;53.612;55.898;2022-09-21T07:49:16;14.32;;;8.73;;
63772;SDS011;49919;53.612;55.898;2022-09-21T07:50:47;11.95;;;8.00;;
63772;SDS011;49919;53.612;55.898;2022-09-21T07:52:18;16.88;;;9.00;;
63772;SDS011;49919;53.612;55.898;2022-09-21T07:53:53;23.70;;;9.52;;
63772;SDS011;49919;53.612;55.898;2022-09-21T07:55:27;21.25;;;12.13;;
63772;SDS011;49919;53.612;55.898;2022-09-21T07:56:58;25.40;;;13.02;;
63772;SDS011;49919;53.612;55.898;2022-09-21T07:58:48;22.20;;;12.82;;
63772;SDS011;49919;53.612;55.898;2022-09-21T08:00:37;17.00;;;9.95;;
63772;SDS011;49919;53.612;55.898;2022-09-21T08:02:08;16.83;;;8.07;;
63772;SDS011;49919;53.612;55.898;2022-09-21T08:03:39;13.48;;;8.13;;
63772;SDS011;49919;53.612;55.898;2022-09-21T08:05:10;17.65;;;7.60;;
63772;SDS011;49919;53.612;55.898;2022-09-21T08:06:41;12.05;;;7.82;;
63772;SDS011;49919;53.612;55.898;2022-09-21T08:08:12;13.52;;;7.38;;
63772;SDS011;49919;53.612;55.898;2022-09-21T08:09:43;13.88;;;6.80;;
63772;SDS011;49919;53.612;55.898;2022-09-21T08:11:19;11.30;;;5.93;;
63772;SDS011;49919;53.612;55.898;2022-09-21T08:12:51;13.32;;;6.82;;
63772;SDS011;49919;53.612;55.898;2022-09-21T08:14:22;19.00;;;7.40;;
63772;SDS011;49919;53.612;55.898;2022-09-21T08:15:59;10.07;;;5.63;;
63772;SDS011;49919;53.612;55.898;2022-09-21T08:17:31;17.88;;;5.80;;
63772;SDS011;49919;53.612;55.898;2022-09-21T08:19:05;19.45;;;5.70;;
63772;SDS011;49919;53.612;55.898;2022-09-21T08:20:36;11.07;;;5.30;;
63772;SDS011;49919;53.612;55.898;2022-09-21T08:22:08;14.70;;;5.40;;
63772;SDS011;49919;53.612;55.898;2022-09-21T08:23:39;12.05;;;5.70;;
63772;SDS011;49919;53.612;55.898;2022-09-21T08:25:12;8.18;;;4.78;;
63772;SDS011;49919;53.612;55.898;2022-09-21T08:26:43;12.98;;;5.28;;
63772;SDS011;49919;53.612;55.898;2022-09-21T08:28:14;12.55;;;5.07;;
63772;SDS011;49919;53.612;55.898;2022-09-21T08:29:45;7.95;;;4.93;;
63772;SDS011;49919;53.612;55.898;2022-09-21T08:31:17;10.50;;;4.78;;
63772;SDS011;49919;53.612;55.898;2022-09-21T08:32:49;8.90;;;4.38;;
63772;SDS011;49919;53.612;55.898;2022-09-21T08:34:23;6.00;;;4.30;;
63772;SDS011;49919;53.612;55.898;2022-09-21T08:35:57;14.02;;;5.57;;
63772;SDS011;49919;53.612;55.898;2022-09-21T08:37:29;14.88;;;5.10;;
63772;SDS011;49919;53.612;55.898;2022-09-21T08:39:01;12.52;;;4.75;;
63772;SDS011;49919;53.612;55.898;2022-09-21T08:40:32;12.77;;;4.70;;
63772;SDS011;49919;53.612;55.898;2022-09-21T08:43:39;10.68;;;4.40;;
63772;SDS011;49919;53.612;55.898;2022-09-21T08:45:16;15.98;;;5.03;;
63772;SDS011;49919;53.612;55.898;2022-09-21T08:49:07;8.25;;;4.43;;
63772;SDS011;49919;53.612;55.898;2022-09-21T08:50:40;9.25;;;4.47;;
63772;SDS011;49919;53.612;55.898;2022-09-21T08:52:16;10.02;;;4.82;;
63772;SDS011;49919;53.612;55.898;2022-09-21T08:53:50;9.98;;;5.28;;
63772;SDS011;49919;53.612;55.898;2022-09-21T08:55:25;18.88;;;6.70;;
63772;SDS011;49919;53.612;55.898;2022-09-21T08:56:56;16.75;;;7.35;;
63772;SDS011;49919;53.612;55.898;2022-09-21T08:58:27;12.88;;;6.28;;
63772;SDS011;49919;53.612;55.898;2022-09-21T09:00:00;15.90;;;6.90;;
63772;SDS011;49919;53.612;55.898;2022-09-21T09:15:13;5.50;;;3.00;;
63772;SDS011;49919;53.612;55.898;2022-09-21T09:19:53;3.70;;;3.08;;
63772;SDS011;49919;53.612;55.898;2022-09-21T09:21:46;8.93;;;3.50;;
63772;SDS011;49919;53.612;55.898;2022-09-21T09:25:26;6.95;;;3.40;;
63772;SDS011;49919;53.612;55.898;2022-09-21T09:33:21;13.10;;;4.00;;
63772;SDS011;49919;53.612;55.898;2022-09-21T09:35:01;4.97;;;2.90;;
63772;SDS011;49919;53.612;55.898;2022-09-21T09:36:45;7.73;;;3.33;;
63772;SDS011;49919;53.612;55.898;2022-09-21T09:40:34;7.68;;;3.35;;
63772;SDS011;49919;53.612;55.898;2022-09-21T09:45:50;9.43;;;2.60;;
63772;SDS011;49919;53.612;55.898;2022-09-21T09:51:13;2.57;;;2.37;;
63772;SDS011;49919;53.612;55.898;2022-09-21T09:52:44;3.70;;;2.55;;
63772;SDS011;49919;53.612;55.898;2022-09-21T09:54:17;6.63;;;2.53;;
63772;SDS011;49919;53.612;55.898;2022-09-21T09:55:53;5.80;;;2.30;;
63772;SDS011;49919;53.612;55.898;2022-09-21T09:57:29;3.00;;;2.75;;
63772;SDS011;49919;53.612;55.898;2022-09-21T09:59:02;7.72;;;3.50;;
63772;SDS011;49919;53.612;55.898;2022-09-21T10:00:39;8.13;;;7.43;;
63772;SDS011;49919;53.612;55.898;2022-09-21T10:02:20;5.78;;;3.00;;
63772;SDS011;49919;53.612;55.898;2022-09-21T10:04:03;7.15;;;2.55;;
63772;SDS011;49919;53.612;55.898;2022-09-21T10:05:36;7.45;;;2.55;;
63772;SDS011;49919;53.612;55.898;2022-09-21T10:07:16;6.00;;;2.70;;
63772;SDS011;49919;53.612;55.898;2022-09-21T10:08:48;6.28;;;2.97;;
63772;SDS011;49919;53.612;55.898;2022-09-21T10:10:31;5.22;;;3.78;;
63772;SDS011;49919;53.612;55.898;2022-09-21T10:14:08;7.30;;;2.58;;
63772;SDS011;49919;53.612;55.898;2022-09-21T10:15:47;5.63;;;3.00;;
63772;SDS011;49919;53.612;55.898;2022-09-21T10:17:30;4.07;;;2.50;;
63772;SDS011;49919;53.612;55.898;2022-09-21T10:19:01;3.67;;;2.65;;
63772;SDS011;49919;53.612;55.898;2022-09-21T10:20:32;2.65;;;2.45;;
63772;SDS011;49919;53.612;55.898;2022-09-21T10:22:03;4.50;;;2.63;;
63772;SDS011;49919;53.612;55.898;2022-09-21T10:23:35;6.40;;;2.95;;
63772;SDS011;49919;53.612;55.898;2022-09-21T10:25:17;5.55;;;2.65;;
63772;SDS011;49919;53.612;55.898;2022-09-21T10:27:03;4.95;;;3.05;;
63772;SDS011;49919;53.612;55.898;2022-09-21T10:29:00;15.95;;;12.18;;
63772;SDS011;49919;53.612;55.898;2022-09-21T10:30:46;7.35;;;4.28;;
63772;SDS011;49919;53.612;55.898;2022-09-21T10:32:19;5.80;;;4.68;;
63772;SDS011;49919;53.612;55.898;2022-09-21T10:35:52;4.00;;;3.67;;
63772;SDS011;49919;53.612;55.898;2022-09-21T10:37:27;11.85;;;6.95;;
63772;SDS011;49919;53.612;55.898;2022-09-21T10:39:38;6.82;;;2.85;;
63772;SDS011;49919;53.612;55.898;2022-09-21T10:41:03;10.88;;;4.03;;